createdAt,value
2019-05-16T00:01:05.104Z,99717.66
2019-05-16T00:03:11.683Z,99715.88
2019-05-16T00:05:18.791Z,99718.09
2019-05-16T00:07:28.712Z,99711.02
2019-05-16T00:09:35.365Z,99711.89
2019-05-16T00:11:41.936Z,99703.89
2019-05-16T00:13:48.964Z,99701.23
2019-05-16T00:15:55.649Z,99704.32
2019-05-16T00:18:02.337Z,99699.01
2019-05-16T00:20:10.589Z,99699.89
2019-05-16T00:22:18.221Z,99696.78
2019-05-16T00:24:26.110Z,99696.77
2019-05-16T00:26:32.643Z,99691.88
2019-05-16T00:28:39.273Z,99685.23
2019-05-16T00:30:48.503Z,99682.13
2019-05-16T00:32:54.258Z,99679.47
2019-05-16T00:35:00.792Z,99675.90
2019-05-16T00:37:08.630Z,99675.02
2019-05-16T00:39:15.524Z,99677.68
2019-05-16T00:41:22.180Z,99673.26
2019-05-16T00:43:29.856Z,99676.37
2019-05-16T00:45:38.544Z,99671.05
2019-05-16T00:47:44.794Z,99674.59
2019-05-16T00:49:52.342Z,99675.48
2019-05-16T00:51:58.827Z,99679.02
2019-05-16T00:54:05.471Z,99681.23
2019-05-16T00:56:12.677Z,99676.83
2019-05-16T00:58:20.098Z,99671.94
2019-05-16T01:00:49.917Z,99682.55
2019-05-16T01:02:57.873Z,99683.42
2019-05-16T01:05:05.083Z,99680.77
2019-05-16T01:07:12.020Z,99679.88
2019-05-16T01:09:18.871Z,99678.55
2019-05-16T01:11:27.658Z,99678.49
2019-05-16T01:13:33.764Z,99670.52
2019-05-16T01:15:40.444Z,99672.30
2019-05-16T01:17:48.363Z,99669.62
2019-05-16T01:19:55.152Z,99666.53
2019-05-16T01:22:01.678Z,99662.53
2019-05-16T01:24:08.272Z,99663.41
2019-05-16T01:26:14.745Z,99659.42
2019-05-16T01:28:21.378Z,99664.73
2019-05-16T01:30:28.683Z,99658.97
2019-05-16T01:32:35.518Z,99652.78
2019-05-16T01:34:44.058Z,99651.46
2019-05-16T01:36:50.616Z,99644.38
2019-05-16T01:38:58.473Z,99641.69
2019-05-16T01:41:05.129Z,99645.68
2019-05-16T01:43:12.312Z,99646.11
2019-05-16T01:45:20.398Z,99646.55
2019-05-16T01:47:28.825Z,99639.47
2019-05-16T01:49:35.185Z,99643.00
2019-05-16T01:51:41.586Z,99639.02
2019-05-16T01:53:48.890Z,99632.39
2019-05-16T01:55:57.856Z,99635.93
2019-05-16T01:58:03.865Z,99639.02
2019-05-16T02:00:11.536Z,99639.02
2019-05-16T02:02:19.255Z,99636.80
2019-05-16T02:04:25.809Z,99630.14
2019-05-16T02:06:32.337Z,99633.69
2019-05-16T02:08:38.829Z,99634.09
2019-05-16T02:10:47.668Z,99627.00
2019-05-16T02:12:53.525Z,99628.33
2019-05-16T02:15:00.139Z,99627.00
2019-05-16T02:17:08.679Z,99620.34
2019-05-16T02:19:14.891Z,99616.77
2019-05-16T02:21:21.501Z,99621.59
2019-05-16T02:23:27.964Z,99620.27
2019-05-16T02:25:34.557Z,99623.38
2019-05-16T02:27:42.066Z,99616.25
2019-05-16T02:29:50.554Z,99615.36
2019-05-16T02:31:56.737Z,99620.66
2019-05-16T02:34:04.954Z,99617.95
2019-05-16T02:36:13.243Z,99617.50
2019-05-16T02:38:21.103Z,99617.94
2019-05-16T02:40:31.030Z,99620.13
2019-05-16T02:42:36.631Z,99619.25
2019-05-16T02:44:43.159Z,99621.02
2019-05-16T02:46:50.816Z,99618.80
2019-05-16T02:49:00.600Z,99616.59
2019-05-16T02:51:10.812Z,99622.28
2019-05-16T02:53:15.522Z,99618.29
2019-05-16T02:55:22.067Z,99625.38
2019-05-16T02:57:31.345Z,99621.39
2019-05-16T02:59:36.833Z,99615.62
2019-05-16T03:01:43.419Z,99622.25
2019-05-16T03:03:51.576Z,99621.80
2019-05-16T03:06:01.428Z,99623.11
2019-05-16T03:08:11.748Z,99616.02
2019-05-16T03:10:20.141Z,99613.78
2019-05-16T03:12:30.967Z,99606.23
2019-05-16T03:14:36.493Z,99612.00
2019-05-16T03:16:44.811Z,99613.74
2019-05-16T03:18:53.964Z,99615.50
2019-05-16T03:21:01.572Z,99607.07
2019-05-16T03:23:10.992Z,99609.25
2019-05-16T03:25:16.158Z,99605.26
2019-05-16T03:27:22.630Z,99608.34
2019-05-16T03:29:30.907Z,99608.34
2019-05-16T03:31:43.722Z,99606.14
2019-05-16T03:33:52.201Z,99601.23
2019-05-16T03:35:55.451Z,99600.33
2019-05-16T03:38:05.333Z,99604.30
2019-05-16T03:40:17.236Z,99603.84
2019-05-16T03:42:23.717Z,99603.82
2019-05-16T03:44:31.793Z,99606.01
2019-05-16T03:46:41.403Z,99609.09
2019-05-16T03:48:46.525Z,99616.62
2019-05-16T03:50:53.176Z,99611.68
2019-05-16T03:53:01.611Z,99617.06
2019-05-16T03:55:11.042Z,99607.30
2019-05-16T03:57:21.359Z,99612.61
2019-05-16T03:59:33.301Z,99605.52
2019-05-16T04:01:46.629Z,99610.83
2019-05-16T04:04:05.877Z,99611.66
2019-05-16T04:06:13.363Z,99611.19
2019-05-16T04:08:24.517Z,99602.75
2019-05-16T04:10:30.914Z,99601.83
2019-05-16T04:12:36.672Z,99596.95
2019-05-16T04:14:46.272Z,99602.26
2019-05-16T04:16:55.003Z,99601.78
2019-05-16T04:19:11.451Z,99602.69
2019-05-16T04:21:21.850Z,99601.38
2019-05-16T04:23:31.376Z,99603.11
2019-05-16T04:25:36.768Z,99601.78
2019-05-16T04:28:01.057Z,99597.77
2019-05-16T04:30:11.231Z,99604.40
2019-05-16T04:32:20.813Z,99602.64
2019-05-16T04:34:27.309Z,99597.75
2019-05-16T04:36:55.728Z,99596.36
2019-05-16T04:39:20.763Z,99591.09
2019-05-16T04:41:21.580Z,99595.91
2019-05-16T04:43:31.579Z,99599.90
2019-05-16T04:45:37.556Z,99599.85
2019-05-16T04:47:44.072Z,99604.23
2019-05-16T04:50:01.259Z,99604.17
2019-05-16T04:52:04.485Z,99608.59
2019-05-16T04:54:11.561Z,99616.09
2019-05-16T04:56:21.604Z,99615.19
2019-05-16T04:58:27.865Z,99610.30
2019-05-16T05:00:44.989Z,99611.98
2019-05-16T05:03:01.317Z,99623.47
2019-05-16T05:05:07.808Z,99619.84
2019-05-16T05:07:16.945Z,99618.89
2019-05-16T05:09:24.650Z,99619.27
2019-05-16T05:11:32.460Z,99612.58
2019-05-16T05:13:41.286Z,99620.46
2019-05-16T05:15:47.091Z,99627.95
2019-05-16T05:17:54.887Z,99622.57
2019-05-16T05:20:01.426Z,99625.16
2019-05-16T05:22:10.348Z,99629.52
2019-05-16T05:24:16.101Z,99620.92
2019-05-16T05:26:26.882Z,99619.79
2019-05-16T05:28:33.620Z,99616.17
2019-05-16T05:30:44.250Z,99623.25
2019-05-16T05:32:52.602Z,99627.64
2019-05-16T05:34:59.848Z,99627.67
2019-05-16T05:37:06.648Z,99632.06
2019-05-16T05:39:15.626Z,99633.34
2019-05-16T05:41:21.376Z,99635.10
2019-05-16T05:43:30.311Z,99633.34
2019-05-16T05:45:36.097Z,99629.86
2019-05-16T05:47:43.854Z,99639.08
2019-05-16T05:49:51.405Z,99637.14
2019-05-16T05:51:57.869Z,99637.94
2019-05-16T05:54:04.489Z,99635.23
2019-05-16T05:56:11.517Z,99641.81
2019-05-16T05:58:20.369Z,99640.88
2019-05-16T06:00:26.456Z,99642.63
2019-05-16T06:02:32.995Z,99644.02
2019-05-16T06:04:39.647Z,99641.61
2019-05-16T06:06:46.126Z,99651.09
2019-05-16T06:08:52.750Z,99649.55
2019-05-16T06:11:00.757Z,99651.96
2019-05-16T06:13:07.483Z,99658.93
2019-05-16T06:15:14.718Z,99662.67
2019-05-16T06:17:21.223Z,99656.17
2019-05-16T06:19:29.694Z,99659.52
2019-05-16T06:21:35.959Z,99664.05
2019-05-16T06:23:43.656Z,99658.61
2019-05-16T06:25:51.161Z,99663.08
2019-05-16T06:28:00.053Z,99664.58
2019-05-16T06:30:11.127Z,99663.45
2019-05-16T06:32:16.907Z,99667.06
2019-05-16T06:34:23.520Z,99671.63
2019-05-16T06:36:30.524Z,99675.72
2019-05-16T06:38:37.270Z,99669.51
2019-05-16T06:40:43.739Z,99668.75
2019-05-16T06:42:50.975Z,99662.79
2019-05-16T06:44:57.691Z,99663.22
2019-05-16T06:47:15.967Z,99672.03
2019-05-16T06:49:12.531Z,99666.52
2019-05-16T06:51:20.042Z,99666.10
2019-05-16T06:53:26.750Z,99673.09
2019-05-16T06:55:33.130Z,99676.46
2019-05-16T06:57:40.947Z,99679.06
2019-05-16T06:59:49.878Z,99682.08
2019-05-16T07:01:55.992Z,99680.67
2019-05-16T07:04:04.959Z,99688.13
2019-05-16T07:06:26.225Z,99699.73
2019-05-16T07:08:20.492Z,99700.95
2019-05-16T07:10:27.497Z,99706.86
2019-05-16T07:12:34.285Z,99709.73
2019-05-16T07:14:42.339Z,99723.41
2019-05-16T07:16:49.663Z,99725.39
2019-05-16T07:18:56.373Z,99729.14
2019-05-16T07:21:03.143Z,99729.77
2019-05-16T07:23:10.147Z,99733.61
2019-05-16T07:25:17.821Z,99730.03
2019-05-16T07:27:24.355Z,99734.99
2019-05-16T07:29:31.023Z,99732.24
2019-05-16T07:31:37.670Z,99732.38
2019-05-16T07:33:44.272Z,99729.38
2019-05-16T07:35:51.574Z,99729.04
2019-05-16T07:38:00.463Z,99722.67
2019-05-16T07:40:19.123Z,99720.90
2019-05-16T07:42:15.857Z,99708.66
2019-05-16T07:44:24.329Z,99714.65
2019-05-16T07:46:31.524Z,99704.80
2019-05-16T07:48:40.446Z,99702.16
2019-05-16T07:50:54.504Z,99707.19
2019-05-16T07:53:01.432Z,99708.59
2019-05-16T07:55:11.160Z,99711.19
2019-05-16T07:57:22.949Z,99708.70
2019-05-16T07:59:29.929Z,99709.95
2019-05-16T08:01:36.581Z,99707.67
2019-05-16T08:03:44.141Z,99711.48
2019-05-16T08:05:51.831Z,99717.50
2019-05-16T08:08:00.045Z,99716.85
2019-05-16T08:10:11.087Z,99717.96
2019-05-16T08:12:23.465Z,99720.59
2019-05-16T08:14:25.850Z,99714.41
2019-05-16T08:16:32.306Z,99719.59
2019-05-16T08:18:41.697Z,99721.61
2019-05-16T08:20:47.201Z,99731.64
2019-05-16T08:22:53.932Z,99742.34
2019-05-16T08:25:02.435Z,99751.70
2019-05-16T08:27:12.173Z,99744.45
2019-05-16T08:29:21.986Z,99750.54
2019-05-16T08:31:31.553Z,99747.16
2019-05-16T08:33:41.293Z,99750.53
2019-05-16T08:35:46.316Z,99742.07
2019-05-16T08:37:52.814Z,99745.34
2019-05-16T08:40:00.359Z,99746.48
2019-05-16T08:42:08.490Z,99747.83
2019-05-16T08:44:16.763Z,99753.28
2019-05-16T08:46:24.919Z,99755.85
2019-05-16T08:48:32.149Z,99762.00
2019-05-16T08:50:42.119Z,99768.62
2019-05-16T08:52:52.335Z,99781.11
2019-05-16T08:54:55.945Z,99780.15
2019-05-16T08:59:13.514Z,99784.52
2019-05-16T09:01:21.759Z,99797.51
2019-05-16T09:03:27.547Z,99804.02
2019-05-16T09:05:34.196Z,99806.55
2019-05-16T09:07:40.723Z,99812.25
2019-05-16T09:09:59.823Z,99818.36
2019-05-16T09:10:21.441Z,99784.72
2019-05-16T09:12:10.057Z,99817.28
2019-05-16T09:14:17.459Z,99822.70
2019-05-16T09:16:27.558Z,99828.75
2019-05-16T09:18:41.272Z,99841.33
2019-05-16T09:20:57.650Z,99841.48
2019-05-16T09:23:08.904Z,99845.70
2019-05-16T09:25:18.572Z,99856.45
2019-05-16T09:27:27.315Z,99856.88
2019-05-16T09:29:36.572Z,99851.85
2019-05-16T09:31:42.147Z,99861.43
2019-05-16T09:33:48.724Z,99868.95
2019-05-16T09:35:57.253Z,99865.81
2019-05-16T09:38:03.694Z,99871.19
2019-05-16T09:40:11.130Z,99871.59
2019-05-16T09:42:17.744Z,99876.63
2019-05-16T09:44:24.237Z,99871.11
2019-05-16T09:46:30.845Z,99871.61
2019-05-16T09:48:38.159Z,99880.44
2019-05-16T09:50:46.889Z,99887.16
2019-05-16T09:52:53.275Z,99877.95
2019-05-16T09:54:59.823Z,99882.88
2019-05-16T09:57:06.685Z,99883.31
2019-05-16T09:59:13.335Z,99882.41
2019-05-16T10:01:19.952Z,99882.71
2019-05-16T10:03:27.282Z,99886.78
2019-05-16T10:05:37.143Z,99885.31
2019-05-16T10:07:46.769Z,99887.98
2019-05-16T10:09:52.078Z,99891.47
2019-05-16T10:12:11.405Z,99897.58
2019-05-16T10:14:08.156Z,99896.89
2019-05-16T10:16:16.684Z,99894.86
2019-05-16T10:18:22.869Z,99896.17
2019-05-16T10:20:29.538Z,99890.91
2019-05-16T10:22:37.374Z,99891.78
2019-05-16T10:24:46.624Z,99890.00
2019-05-16T10:26:53.982Z,99897.94
2019-05-16T10:29:00.534Z,99899.97
2019-05-16T10:31:07.137Z,99896.45
2019-05-16T10:33:13.787Z,99891.07
2019-05-16T10:35:20.610Z,99894.89
2019-05-16T10:37:37.737Z,99891.59
2019-05-16T10:39:49.235Z,99901.73
2019-05-16T10:42:01.026Z,99893.89
2019-05-16T10:44:10.694Z,99898.81
2019-05-16T10:46:20.841Z,99901.43
2019-05-16T10:48:27.400Z,99900.98
2019-05-16T10:50:36.804Z,99902.67
2019-05-16T10:52:48.912Z,99906.09
2019-05-16T10:55:02.743Z,99908.38
2019-05-16T10:57:08.872Z,99904.59
2019-05-16T10:59:54.537Z,99901.83
2019-05-16T11:01:31.828Z,99906.56
2019-05-16T11:03:49.412Z,99904.34
2019-05-16T11:06:03.095Z,99903.47
2019-05-16T11:07:58.358Z,99904.58
2019-05-16T11:10:07.341Z,99905.78
2019-05-16T11:12:12.949Z,99900.16
2019-05-16T11:14:19.205Z,99902.61
2019-05-16T11:16:27.421Z,99909.80
2019-05-16T11:18:34.047Z,99900.84
2019-05-16T11:20:44.618Z,99907.82
2019-05-16T11:22:49.231Z,99906.48
2019-05-16T11:24:56.638Z,99911.52
2019-05-16T11:27:03.210Z,99904.52
2019-05-16T11:29:09.781Z,99907.98
2019-05-16T11:31:17.652Z,99907.94
2019-05-16T11:33:24.390Z,99913.55
2019-05-16T11:35:31.974Z,99918.19
2019-05-16T11:37:38.604Z,99917.04
2019-05-16T11:39:46.610Z,99918.06
2019-05-16T11:41:53.445Z,99923.12
2019-05-16T11:43:59.974Z,99927.89
2019-05-16T11:46:06.593Z,99924.87
2019-05-16T11:48:13.041Z,99925.58
2019-05-16T11:50:19.857Z,99924.91
2019-05-16T11:52:26.444Z,99921.73
2019-05-16T11:54:32.977Z,99921.72
2019-05-16T11:56:39.524Z,99920.93
2019-05-16T11:58:47.339Z,99918.73
2019-05-16T12:00:54.228Z,99933.05
2019-05-16T12:03:00.782Z,99932.26
2019-05-16T12:05:07.586Z,99932.30
2019-05-16T12:07:14.129Z,99934.54
2019-05-16T12:09:20.552Z,99943.01
2019-05-16T12:11:27.571Z,99936.34
2019-05-16T12:13:36.666Z,99943.80
2019-05-16T12:15:42.418Z,99932.86
2019-05-16T12:18:00.776Z,99933.27
2019-05-16T12:20:07.807Z,99939.76
2019-05-16T12:22:14.315Z,99937.94
2019-05-16T12:24:36.095Z,99933.67
2019-05-16T12:26:37.255Z,99934.09
2019-05-16T12:28:45.407Z,99932.78
2019-05-16T12:30:59.235Z,99931.98
2019-05-16T12:33:09.767Z,99933.14
2019-05-16T12:35:17.578Z,99924.56
2019-05-16T12:37:24.407Z,99913.86
2019-05-16T12:39:30.970Z,99911.35
2019-05-16T12:41:40.977Z,99913.61
2019-05-16T12:43:52.619Z,99908.77
2019-05-16T12:45:56.951Z,99907.30
2019-05-16T12:48:03.624Z,99914.42
2019-05-16T12:50:17.526Z,99922.91
2019-05-16T12:52:22.978Z,99920.50
2019-05-16T12:54:29.485Z,99921.25
2019-05-16T12:56:37.801Z,99916.31
2019-05-16T12:58:44.442Z,99915.05
2019-05-16T13:00:57.343Z,99912.04
2019-05-16T13:02:59.249Z,99914.72
2019-05-16T13:05:08.565Z,99907.39
2019-05-16T13:07:17.237Z,99912.95
2019-05-16T13:09:23.401Z,99907.20
2019-05-16T13:11:29.942Z,99908.84
2019-05-16T13:13:37.597Z,99909.34
2019-05-16T13:15:44.237Z,99914.28
2019-05-16T13:17:50.707Z,99916.06
2019-05-16T13:19:57.690Z,99910.86
2019-05-16T13:22:07.154Z,99910.48
2019-05-16T13:24:12.693Z,99909.52
2019-05-16T13:26:19.161Z,99913.33
2019-05-16T13:28:25.756Z,99913.12
2019-05-16T13:30:32.415Z,99906.95
2019-05-16T13:32:39.036Z,99899.19
2019-05-16T13:34:45.497Z,99903.38
2019-05-16T13:36:51.946Z,99907.19
2019-05-16T13:38:58.504Z,99895.61
2019-05-16T13:41:07.472Z,99896.33
2019-05-16T13:43:13.293Z,99890.66
2019-05-16T13:45:20.189Z,99888.80
2019-05-16T13:47:26.924Z,99892.89
2019-05-16T13:49:34.414Z,99878.63
2019-05-16T13:51:40.890Z,99882.59
2019-05-16T13:53:47.447Z,99881.11
2019-05-16T13:56:01.715Z,99886.84
2019-05-16T13:58:07.478Z,99878.80
2019-05-16T14:00:17.353Z,99882.77
2019-05-16T14:02:26.566Z,99876.19
2019-05-16T14:04:32.421Z,99874.73
2019-05-16T14:06:50.240Z,99868.61
2019-05-16T14:09:13.766Z,99865.48
2019-05-16T14:11:25.070Z,99862.17
2019-05-16T14:13:32.873Z,99871.80
2019-05-16T14:15:39.507Z,99865.95
2019-05-16T14:17:49.105Z,99864.08
2019-05-16T14:19:57.286Z,99873.16
2019-05-16T14:22:04.119Z,99864.52
2019-05-16T14:24:12.377Z,99861.25
2019-05-16T14:26:20.232Z,99866.44
2019-05-16T14:28:28.563Z,99862.92
2019-05-16T14:30:37.216Z,99862.39
2019-05-16T14:32:44.782Z,99859.86
2019-05-16T14:34:52.992Z,99853.67
2019-05-16T14:37:00.989Z,99858.89
2019-05-16T14:39:08.750Z,99855.33
2019-05-16T14:41:20.709Z,99857.08
2019-05-16T14:43:27.384Z,99849.13
2019-05-16T14:45:34.152Z,99850.12
2019-05-16T14:47:40.614Z,99850.83
2019-05-16T14:49:48.823Z,99848.20
2019-05-16T14:51:57.868Z,99848.92
2019-05-16T14:57:58.436Z,99847.95
2019-05-16T15:00:07.384Z,99844.74
2019-05-16T15:02:17.828Z,99838.39
2019-05-16T15:04:23.408Z,99834.83
2019-05-16T15:06:29.953Z,99829.09
2019-05-16T15:08:36.423Z,99829.75
2019-05-16T15:10:42.905Z,99828.75
2019-05-16T15:12:49.520Z,99826.05
2019-05-16T15:14:58.793Z,99825.84
2019-05-16T15:17:07.059Z,99826.55
2019-05-16T15:19:13.921Z,99821.08
2019-05-16T15:21:21.526Z,99826.37
2019-05-16T15:23:28.632Z,99822.75
2019-05-16T15:25:37.512Z,99823.19
2019-05-16T15:27:43.603Z,99813.67
2019-05-16T15:29:50.912Z,99812.20
2019-05-16T15:31:59.220Z,99815.20
2019-05-16T15:34:05.776Z,99810.87
2019-05-16T15:36:12.312Z,99808.70
2019-05-16T15:38:18.887Z,99805.38
2019-05-16T15:40:26.820Z,99818.25
2019-05-16T15:42:33.667Z,99812.53
2019-05-16T15:44:41.744Z,99810.52
2019-05-16T15:46:48.750Z,99806.19
2019-05-16T15:48:57.072Z,99801.13
2019-05-16T15:51:08.708Z,99797.52
2019-05-16T15:53:13.570Z,99803.47
2019-05-16T15:55:21.126Z,99792.89
2019-05-16T15:57:30.828Z,99798.57
2019-05-16T15:59:37.650Z,99791.62
2019-05-16T16:01:47.209Z,99794.33
2019-05-16T16:03:52.727Z,99790.91
2019-05-16T16:05:59.261Z,99795.27
2019-05-16T16:08:06.881Z,99796.16
2019-05-16T16:10:14.597Z,99794.17
2019-05-16T16:12:22.865Z,99788.58
2019-05-16T16:14:32.610Z,99785.13
2019-05-16T16:16:39.136Z,99787.72
2019-05-16T16:18:46.829Z,99781.11
2019-05-16T16:20:53.710Z,99786.89
2019-05-16T16:23:00.322Z,99789.52
2019-05-16T16:25:08.160Z,99783.79
2019-05-16T16:27:16.887Z,99784.72
2019-05-16T16:29:22.919Z,99782.91
2019-05-16T16:31:29.534Z,99781.11
2019-05-16T16:33:37.457Z,99781.28
2019-05-16T16:35:44.230Z,99775.14
2019-05-16T16:37:50.783Z,99774.81
2019-05-16T16:39:57.691Z,99766.08
2019-05-16T16:42:04.319Z,99768.75
2019-05-16T16:44:10.919Z,99767.92
2019-05-16T16:46:17.367Z,99762.52
2019-05-16T16:48:26.400Z,99758.83
2019-05-16T16:50:32.163Z,99762.30
2019-05-16T16:52:38.780Z,99760.59
2019-05-16T16:54:47.653Z,99759.94
2019-05-16T16:56:53.989Z,99759.05
2019-05-16T16:59:00.561Z,99756.87
2019-05-16T17:01:07.918Z,99759.14
2019-05-16T17:03:16.558Z,99752.13
2019-05-16T17:05:22.935Z,99751.42
2019-05-16T17:07:31.094Z,99759.34
2019-05-16T17:09:37.672Z,99761.33
2019-05-16T17:11:46.436Z,99764.34
2019-05-16T17:13:52.531Z,99761.42
2019-05-16T17:15:59.202Z,99757.67
2019-05-16T17:18:07.252Z,99756.62
2019-05-16T17:20:15.472Z,99759.47
2019-05-16T17:22:22.044Z,99764.56
2019-05-16T17:24:28.676Z,99760.67
2019-05-16T17:26:37.642Z,99755.81
2019-05-16T17:28:43.620Z,99760.75
2019-05-16T17:30:50.255Z,99758.69
2019-05-16T17:32:56.966Z,99758.77
2019-05-16T17:35:03.498Z,99757.94
2019-05-16T17:37:11.065Z,99762.07
2019-05-16T17:39:18.229Z,99762.11
2019-05-16T17:41:27.186Z,99763.98
2019-05-16T17:43:33.464Z,99768.49
2019-05-16T17:45:40.266Z,99763.64
2019-05-16T17:47:46.969Z,99762.38
2019-05-16T17:49:53.509Z,99764.67
2019-05-16T17:52:00.110Z,99761.62
2019-05-16T17:54:07.327Z,99764.02
2019-05-16T17:56:13.950Z,99764.60
2019-05-16T17:58:20.474Z,99768.65
2019-05-16T18:00:29.060Z,99771.02
2019-05-16T18:02:37.263Z,99767.08
2019-05-16T18:04:44.037Z,99766.73
2019-05-16T18:06:52.259Z,99766.04
2019-05-16T18:08:58.855Z,99763.02
2019-05-16T18:11:07.136Z,99768.09
2019-05-16T18:13:13.707Z,99770.48
2019-05-16T18:15:22.933Z,99771.93
2019-05-16T18:17:29.649Z,99778.75
2019-05-16T18:19:37.275Z,99779.48
2019-05-16T18:21:43.779Z,99775.22
2019-05-16T18:23:50.192Z,99785.40
2019-05-16T18:25:57.569Z,99789.20
2019-05-16T18:28:04.926Z,99789.53
2019-05-16T18:30:16.477Z,99796.63
2019-05-16T18:32:22.538Z,99790.59
2019-05-16T18:34:29.185Z,99779.70
2019-05-16T18:36:35.656Z,99787.54
2019-05-16T18:38:42.265Z,99784.59
2019-05-16T18:40:48.974Z,99783.77
2019-05-16T18:42:57.050Z,99786.03
2019-05-16T18:45:08.144Z,99781.72
2019-05-16T18:47:14.622Z,99787.56
2019-05-16T18:49:23.997Z,99785.42
2019-05-16T18:51:29.492Z,99788.13
2019-05-16T18:53:37.395Z,99785.09
2019-05-16T18:55:46.235Z,99791.38
2019-05-16T18:57:52.934Z,99787.41
2019-05-16T18:59:59.411Z,99785.67
2019-05-16T19:02:09.854Z,99783.03
2019-05-16T19:04:14.371Z,99779.91
2019-05-16T19:06:20.947Z,99783.86
2019-05-16T19:08:27.506Z,99782.07
2019-05-16T19:10:36.458Z,99781.70
2019-05-16T19:12:42.461Z,99782.60
2019-05-16T19:14:49.148Z,99782.17
2019-05-16T19:16:56.709Z,99780.02
2019-05-16T19:19:03.492Z,99783.59
2019-05-16T19:21:10.089Z,99780.05
2019-05-16T19:23:17.479Z,99780.05
2019-05-16T19:25:26.863Z,99784.97
2019-05-16T19:27:32.659Z,99778.79
2019-05-16T19:29:41.041Z,99781.00
2019-05-16T19:31:50.459Z,99774.81
2019-05-16T19:33:56.539Z,99776.15
2019-05-16T19:36:03.305Z,99769.96
2019-05-16T19:38:10.001Z,99769.98
2019-05-16T19:40:18.746Z,99770.50
2019-05-16T19:42:26.625Z,99764.31
2019-05-16T19:44:33.477Z,99765.67
2019-05-16T19:46:40.031Z,99761.24
2019-05-16T19:48:46.597Z,99763.53
2019-05-16T19:50:53.043Z,99766.67
2019-05-16T19:52:59.538Z,99761.85
2019-05-16T19:55:08.610Z,99763.64
2019-05-16T19:57:17.475Z,99762.32
2019-05-16T19:59:24.179Z,99756.56
2019-05-16T20:01:30.794Z,99759.25
2019-05-16T20:03:37.433Z,99751.73
2019-05-16T20:05:47.630Z,99756.63
2019-05-16T20:07:54.537Z,99749.09
2019-05-16T20:10:01.019Z,99741.53
2019-05-16T20:12:07.895Z,99745.12
2019-05-16T20:14:16.946Z,99734.09
2019-05-16T20:16:27.141Z,99741.25
2019-05-16T20:18:32.981Z,99734.17
2019-05-16T20:20:39.591Z,99737.26
2019-05-16T20:22:46.267Z,99740.78
2019-05-16T20:24:56.168Z,99730.59
2019-05-16T20:27:05.071Z,99736.45
2019-05-16T20:29:10.348Z,99740.88
2019-05-16T20:31:17.201Z,99738.23
2019-05-16T20:33:23.722Z,99735.14
2019-05-16T20:35:30.299Z,99731.17
2019-05-16T20:37:36.915Z,99728.16
2019-05-16T20:39:43.323Z,99729.06
2019-05-16T20:41:51.848Z,99723.28
2019-05-16T20:43:58.433Z,99721.08
2019-05-16T20:46:07.280Z,99714.89
2019-05-16T20:48:15.333Z,99719.38
2019-05-16T20:50:21.792Z,99719.03
2019-05-16T20:52:28.314Z,99716.82
2019-05-16T20:54:34.892Z,99714.10
2019-05-16T20:56:41.323Z,99715.88
2019-05-16T20:58:48.694Z,99711.50
2019-05-16T21:01:01.309Z,99708.43
2019-05-16T21:03:07.083Z,99707.98
2019-05-16T21:05:17.727Z,99708.88
2019-05-16T21:07:26.360Z,99705.79
2019-05-16T21:09:33.341Z,99703.53
2019-05-16T21:11:39.947Z,99703.13
2019-05-16T21:13:48.556Z,99708.05
2019-05-16T21:15:58.315Z,99704.46
2019-05-16T21:18:07.353Z,99705.79
2019-05-16T21:20:14.350Z,99703.13
2019-05-16T21:22:21.889Z,99699.13
2019-05-16T21:24:28.758Z,99698.23
2019-05-16T21:26:36.855Z,99698.27
2019-05-16T21:28:46.253Z,99701.41
2019-05-16T21:30:52.862Z,99696.06
2019-05-16T21:33:01.009Z,99700.94
2019-05-16T21:35:08.574Z,99696.52
2019-05-16T21:37:20.099Z,99698.75
2019-05-16T21:39:26.471Z,99693.85
2019-05-16T21:41:36.591Z,99698.70
2019-05-16T21:43:43.777Z,99699.13
2019-05-16T21:45:50.659Z,99694.71
2019-05-16T21:47:57.270Z,99690.29
2019-05-16T21:50:07.390Z,99690.25
2019-05-16T21:52:14.432Z,99685.39
2019-05-16T21:54:22.375Z,99687.17
2019-05-16T21:56:28.808Z,99678.31
2019-05-16T21:58:37.244Z,99686.30
2019-05-16T22:00:48.668Z,99691.17
2019-05-16T22:02:57.328Z,99689.41
2019-05-16T22:05:06.351Z,99683.20
2019-05-16T22:07:16.563Z,99682.28
2019-05-16T22:09:22.922Z,99684.49
2019-05-16T22:11:29.493Z,99681.83
2019-05-16T22:13:38.517Z,99675.60
2019-05-16T22:15:46.376Z,99668.52
2019-05-16T22:17:56.635Z,99669.84
2019-05-16T22:20:04.309Z,99669.84
2019-05-16T22:22:11.661Z,99667.20
2019-05-16T22:24:18.231Z,99666.80
2019-05-16T22:26:27.068Z,99663.28
2019-05-16T22:28:34.007Z,99661.50
2019-05-16T22:30:41.119Z,99656.63
2019-05-16T22:32:49.033Z,99653.52
2019-05-16T22:34:59.538Z,99649.50
2019-05-16T22:37:03.745Z,99648.59
2019-05-16T22:39:10.417Z,99643.25
2019-05-16T22:41:17.401Z,99639.23
2019-05-16T22:43:26.660Z,99635.22
2019-05-16T22:45:33.525Z,99640.06
2019-05-16T22:47:41.139Z,99635.16
2019-05-16T22:49:47.849Z,99638.20
2019-05-16T22:51:54.238Z,99635.53
2019-05-16T22:54:00.685Z,99639.95
2019-05-16T22:56:07.627Z,99638.17
2019-05-16T22:58:16.292Z,99636.84
2019-05-16T23:00:26.574Z,99638.58
2019-05-16T23:02:33.293Z,99637.70
2019-05-16T23:04:40.908Z,99627.50
2019-05-16T23:06:47.602Z,99620.84
2019-05-16T23:08:56.208Z,99618.15
2019-05-16T23:11:02.247Z,99617.70
2019-05-16T23:13:08.876Z,99616.77
2019-05-16T23:15:17.069Z,99621.19
2019-05-16T23:17:23.824Z,99614.53
2019-05-16T23:19:30.298Z,99615.86
2019-05-16T23:21:36.913Z,99618.08
2019-05-16T23:23:43.673Z,99614.89
2019-05-16T23:25:50.236Z,99617.56
2019-05-16T23:27:56.771Z,99618.44
2019-05-16T23:30:03.805Z,99612.23
2019-05-16T23:32:10.596Z,99608.21
2019-05-16T23:34:18.803Z,99606.00
2019-05-16T23:36:26.527Z,99611.39
2019-05-16T23:38:33.150Z,99599.43
2019-05-16T23:40:39.649Z,99595.89
2019-05-16T23:42:46.613Z,99595.86
2019-05-16T23:44:53.119Z,99600.25
2019-05-16T23:46:59.717Z,99595.02
2019-05-16T23:49:07.286Z,99590.98
2019-05-16T23:51:16.913Z,99586.59
2019-05-16T23:53:23.645Z,99598.16
2019-05-16T23:55:30.283Z,99592.85
2019-05-16T23:57:37.557Z,99598.61
2019-05-16T23:59:44.123Z,99599.11
